sensor_id;sensor_type;location;lat;lon;timestamp;P1;durP1;ratioP1;P2;durP2;ratioP2
54787;SDS011;59598;48.112;16.280;2023-08-24T00:02:24;5.88;;;5.20;;
54787;SDS011;59598;48.112;16.280;2023-08-24T00:04:59;6.07;;;5.45;;
54787;SDS011;59598;48.112;16.280;2023-08-24T00:07:33;6.38;;;5.07;;
54787;SDS011;59598;48.112;16.280;2023-08-24T00:10:07;7.35;;;5.68;;
54787;SDS011;59598;48.112;16.280;2023-08-24T00:12:39;6.50;;;4.78;;
54787;SDS011;59598;48.112;16.280;2023-08-24T00:15:13;7.90;;;5.97;;
54787;SDS011;59598;48.112;16.280;2023-08-24T00:17:45;9.80;;;5.93;;
54787;SDS011;59598;48.112;16.280;2023-08-24T00:20:24;6.78;;;5.13;;
54787;SDS011;59598;48.112;16.280;2023-08-24T00:23:00;9.32;;;6.00;;
54787;SDS011;59598;48.112;16.280;2023-08-24T00:25:35;9.02;;;5.40;;
54787;SDS011;59598;48.112;16.280;2023-08-24T00:28:15;6.82;;;5.07;;
54787;SDS011;59598;48.112;16.280;2023-08-24T00:30:49;8.02;;;5.88;;
54787;SDS011;59598;48.112;16.280;2023-08-24T00:33:21;6.05;;;5.30;;
54787;SDS011;59598;48.112;16.280;2023-08-24T00:35:58;7.72;;;5.93;;
54787;SDS011;59598;48.112;16.280;2023-08-24T00:38:34;8.50;;;5.75;;
54787;SDS011;59598;48.112;16.280;2023-08-24T00:41:06;7.63;;;5.47;;
54787;SDS011;59598;48.112;16.280;2023-08-24T00:43:37;6.93;;;5.85;;
54787;SDS011;59598;48.112;16.280;2023-08-24T00:46:11;10.93;;;6.38;;
54787;SDS011;59598;48.112;16.280;2023-08-24T00:48:43;6.80;;;6.10;;
54787;SDS011;59598;48.112;16.280;2023-08-24T00:51:18;7.40;;;5.93;;
54787;SDS011;59598;48.112;16.280;2023-08-24T00:53:52;8.27;;;6.00;;
54787;SDS011;59598;48.112;16.280;2023-08-24T00:56:24;6.93;;;6.25;;
54787;SDS011;59598;48.112;16.280;2023-08-24T00:58:57;7.22;;;5.18;;
54787;SDS011;59598;48.112;16.280;2023-08-24T01:01:31;7.90;;;5.35;;
54787;SDS011;59598;48.112;16.280;2023-08-24T01:04:03;6.32;;;5.70;;
54787;SDS011;59598;48.112;16.280;2023-08-24T01:06:36;9.48;;;6.05;;
54787;SDS011;59598;48.112;16.280;2023-08-24T01:09:08;5.65;;;5.00;;
54787;SDS011;59598;48.112;16.280;2023-08-24T01:14:47;9.02;;;5.97;;
54787;SDS011;59598;48.112;16.280;2023-08-24T01:17:35;7.20;;;6.00;;
54787;SDS011;59598;48.112;16.280;2023-08-24T01:20:09;8.38;;;6.45;;
54787;SDS011;59598;48.112;16.280;2023-08-24T01:25:45;7.72;;;6.32;;
54787;SDS011;59598;48.112;16.280;2023-08-24T01:28:25;8.60;;;6.78;;
54787;SDS011;59598;48.112;16.280;2023-08-24T01:31:08;7.30;;;6.30;;
54787;SDS011;59598;48.112;16.280;2023-08-24T01:33:41;8.65;;;5.97;;
54787;SDS011;59598;48.112;16.280;2023-08-24T01:36:14;6.97;;;6.07;;
54787;SDS011;59598;48.112;16.280;2023-08-24T01:39:02;8.20;;;6.68;;
54787;SDS011;59598;48.112;16.280;2023-08-24T01:42:06;7.53;;;6.72;;
54787;SDS011;59598;48.112;16.280;2023-08-24T01:44:49;8.55;;;6.97;;
54787;SDS011;59598;48.112;16.280;2023-08-24T01:47:30;7.60;;;6.40;;
54787;SDS011;59598;48.112;16.280;2023-08-24T01:50:04;7.38;;;6.05;;
54787;SDS011;59598;48.112;16.280;2023-08-24T01:53:15;7.00;;;5.90;;
54787;SDS011;59598;48.112;16.280;2023-08-24T01:55:48;7.43;;;6.13;;
54787;SDS011;59598;48.112;16.280;2023-08-24T01:58:22;7.93;;;6.70;;
54787;SDS011;59598;48.112;16.280;2023-08-24T02:00:55;7.38;;;6.50;;
54787;SDS011;59598;48.112;16.280;2023-08-24T02:03:26;9.25;;;6.78;;
54787;SDS011;59598;48.112;16.280;2023-08-24T02:12:27;7.93;;;6.65;;
54787;SDS011;59598;48.112;16.280;2023-08-24T02:14:59;10.10;;;6.35;;
54787;SDS011;59598;48.112;16.280;2023-08-24T02:17:34;7.97;;;6.70;;
54787;SDS011;59598;48.112;16.280;2023-08-24T02:20:06;7.68;;;6.65;;
54787;SDS011;59598;48.112;16.280;2023-08-24T02:22:42;11.73;;;7.38;;
54787;SDS011;59598;48.112;16.280;2023-08-24T02:25:14;7.68;;;6.88;;
54787;SDS011;59598;48.112;16.280;2023-08-24T02:27:50;7.63;;;6.75;;
54787;SDS011;59598;48.112;16.280;2023-08-24T02:30:22;7.38;;;6.28;;
54787;SDS011;59598;48.112;16.280;2023-08-24T02:32:54;8.15;;;6.68;;
54787;SDS011;59598;48.112;16.280;2023-08-24T02:35:29;8.90;;;7.00;;
54787;SDS011;59598;48.112;16.280;2023-08-24T02:38:02;20.20;;;8.13;;
54787;SDS011;59598;48.112;16.280;2023-08-24T02:40:39;8.77;;;6.80;;
54787;SDS011;59598;48.112;16.280;2023-08-24T02:43:17;8.48;;;6.40;;
54787;SDS011;59598;48.112;16.280;2023-08-24T02:49:36;10.77;;;6.45;;
54787;SDS011;59598;48.112;16.280;2023-08-24T02:55:01;6.55;;;5.78;;
54787;SDS011;59598;48.112;16.280;2023-08-24T02:57:34;7.72;;;6.03;;
54787;SDS011;59598;48.112;16.280;2023-08-24T03:00:09;7.15;;;5.75;;
54787;SDS011;59598;48.112;16.280;2023-08-24T03:02:44;7.88;;;7.07;;
54787;SDS011;59598;48.112;16.280;2023-08-24T03:05:20;6.55;;;5.85;;
54787;SDS011;59598;48.112;16.280;2023-08-24T03:07:56;9.45;;;6.88;;
54787;SDS011;59598;48.112;16.280;2023-08-24T03:10:29;9.60;;;7.25;;
54787;SDS011;59598;48.112;16.280;2023-08-24T03:13:07;7.53;;;6.75;;
54787;SDS011;59598;48.112;16.280;2023-08-24T03:15:41;8.35;;;7.03;;
54787;SDS011;59598;48.112;16.280;2023-08-24T03:18:19;9.77;;;7.05;;
54787;SDS011;59598;48.112;16.280;2023-08-24T03:20:56;7.10;;;6.40;;
54787;SDS011;59598;48.112;16.280;2023-08-24T03:23:34;9.63;;;6.53;;
54787;SDS011;59598;48.112;16.280;2023-08-24T03:26:10;8.60;;;7.28;;
54787;SDS011;59598;48.112;16.280;2023-08-24T03:28:47;8.85;;;7.45;;
54787;SDS011;59598;48.112;16.280;2023-08-24T03:31:19;8.13;;;6.82;;
54787;SDS011;59598;48.112;16.280;2023-08-24T03:33:53;8.60;;;6.78;;
54787;SDS011;59598;48.112;16.280;2023-08-24T03:40:15;7.90;;;6.70;;
54787;SDS011;59598;48.112;16.280;2023-08-24T03:42:47;13.35;;;7.30;;
54787;SDS011;59598;48.112;16.280;2023-08-24T03:45:22;8.60;;;6.95;;
54787;SDS011;59598;48.112;16.280;2023-08-24T03:47:57;7.57;;;6.82;;
54787;SDS011;59598;48.112;16.280;2023-08-24T03:50:29;9.20;;;6.68;;
54787;SDS011;59598;48.112;16.280;2023-08-24T03:53:04;9.55;;;7.10;;
54787;SDS011;59598;48.112;16.280;2023-08-24T03:59:44;8.02;;;6.93;;
54787;SDS011;59598;48.112;16.280;2023-08-24T04:02:19;10.02;;;7.53;;
54787;SDS011;59598;48.112;16.280;2023-08-24T04:04:51;8.50;;;6.60;;
54787;SDS011;59598;48.112;16.280;2023-08-24T04:07:23;7.75;;;6.47;;
54787;SDS011;59598;48.112;16.280;2023-08-24T04:10:00;8.57;;;6.78;;
54787;SDS011;59598;48.112;16.280;2023-08-24T04:12:33;7.63;;;6.68;;
54787;SDS011;59598;48.112;16.280;2023-08-24T04:15:08;8.13;;;6.63;;
54787;SDS011;59598;48.112;16.280;2023-08-24T04:17:41;8.50;;;6.40;;
54787;SDS011;59598;48.112;16.280;2023-08-24T04:20:13;7.95;;;7.00;;
54787;SDS011;59598;48.112;16.280;2023-08-24T04:22:49;8.25;;;7.30;;
54787;SDS011;59598;48.112;16.280;2023-08-24T04:27:55;8.00;;;7.05;;
54787;SDS011;59598;48.112;16.280;2023-08-24T04:30:29;7.13;;;6.43;;
54787;SDS011;59598;48.112;16.280;2023-08-24T04:33:01;8.57;;;7.35;;
54787;SDS011;59598;48.112;16.280;2023-08-24T04:39:25;12.10;;;8.15;;
54787;SDS011;59598;48.112;16.280;2023-08-24T04:42:03;9.93;;;7.93;;
54787;SDS011;59598;48.112;16.280;2023-08-24T04:44:37;9.02;;;7.93;;
54787;SDS011;59598;48.112;16.280;2023-08-24T04:47:11;9.45;;;8.32;;
54787;SDS011;59598;48.112;16.280;2023-08-24T04:49:45;11.60;;;7.60;;
54787;SDS011;59598;48.112;16.280;2023-08-24T04:52:21;9.02;;;8.13;;
54787;SDS011;59598;48.112;16.280;2023-08-24T04:54:53;8.50;;;7.07;;
54787;SDS011;59598;48.112;16.280;2023-08-24T04:57:27;8.73;;;7.93;;
54787;SDS011;59598;48.112;16.280;2023-08-24T05:00:05;8.52;;;6.50;;
54787;SDS011;59598;48.112;16.280;2023-08-24T05:05:12;6.88;;;6.13;;
54787;SDS011;59598;48.112;16.280;2023-08-24T05:07:48;8.18;;;6.90;;
54787;SDS011;59598;48.112;16.280;2023-08-24T05:10:23;9.50;;;6.30;;
54787;SDS011;59598;48.112;16.280;2023-08-24T05:12:59;8.32;;;6.32;;
54787;SDS011;59598;48.112;16.280;2023-08-24T05:19:29;6.22;;;5.55;;
54787;SDS011;59598;48.112;16.280;2023-08-24T05:22:07;7.15;;;5.68;;
54787;SDS011;59598;48.112;16.280;2023-08-24T05:24:46;7.07;;;5.30;;
54787;SDS011;59598;48.112;16.280;2023-08-24T05:27:18;7.30;;;5.70;;
54787;SDS011;59598;48.112;16.280;2023-08-24T05:30:04;6.00;;;5.40;;
54787;SDS011;59598;48.112;16.280;2023-08-24T05:32:42;6.78;;;5.85;;
54787;SDS011;59598;48.112;16.280;2023-08-24T05:35:19;8.02;;;5.38;;
54787;SDS011;59598;48.112;16.280;2023-08-24T05:37:53;8.18;;;5.25;;
54787;SDS011;59598;48.112;16.280;2023-08-24T05:40:33;7.97;;;5.43;;
54787;SDS011;59598;48.112;16.280;2023-08-24T05:43:11;8.50;;;5.20;;
54787;SDS011;59598;48.112;16.280;2023-08-24T05:45:47;8.02;;;4.78;;
54787;SDS011;59598;48.112;16.280;2023-08-24T05:48:24;6.38;;;4.88;;
54787;SDS011;59598;48.112;16.280;2023-08-24T05:51:00;6.88;;;5.13;;
54787;SDS011;59598;48.112;16.280;2023-08-24T05:53:35;7.18;;;5.07;;
54787;SDS011;59598;48.112;16.280;2023-08-24T05:56:13;6.85;;;4.78;;
54787;SDS011;59598;48.112;16.280;2023-08-24T05:58:45;7.78;;;5.30;;
54787;SDS011;59598;48.112;16.280;2023-08-24T06:01:19;9.13;;;5.20;;
54787;SDS011;59598;48.112;16.280;2023-08-24T06:03:55;6.93;;;5.45;;
54787;SDS011;59598;48.112;16.280;2023-08-24T06:06:27;5.63;;;4.68;;
54787;SDS011;59598;48.112;16.280;2023-08-24T06:09:05;7.45;;;4.75;;
54787;SDS011;59598;48.112;16.280;2023-08-24T06:11:48;5.45;;;4.30;;
54787;SDS011;59598;48.112;16.280;2023-08-24T06:14:19;4.45;;;4.05;;
54787;SDS011;59598;48.112;16.280;2023-08-24T06:16:55;6.15;;;4.97;;
54787;SDS011;59598;48.112;16.280;2023-08-24T06:19:27;6.60;;;4.70;;
54787;SDS011;59598;48.112;16.280;2023-08-24T06:21:58;6.18;;;4.47;;
54787;SDS011;59598;48.112;16.280;2023-08-24T06:24:30;6.25;;;5.03;;
54787;SDS011;59598;48.112;16.280;2023-08-24T06:27:05;5.78;;;4.53;;
54787;SDS011;59598;48.112;16.280;2023-08-24T06:29:41;7.28;;;4.50;;
54787;SDS011;59598;48.112;16.280;2023-08-24T06:32:19;4.97;;;4.43;;
54787;SDS011;59598;48.112;16.280;2023-08-24T06:34:50;4.68;;;4.22;;
54787;SDS011;59598;48.112;16.280;2023-08-24T06:37:24;4.80;;;4.28;;
54787;SDS011;59598;48.112;16.280;2023-08-24T06:39:59;5.47;;;4.90;;
54787;SDS011;59598;48.112;16.280;2023-08-24T06:42:33;5.38;;;4.20;;
54787;SDS011;59598;48.112;16.280;2023-08-24T06:45:10;5.32;;;4.30;;
54787;SDS011;59598;48.112;16.280;2023-08-24T06:47:44;6.65;;;4.68;;
54787;SDS011;59598;48.112;16.280;2023-08-24T06:50:23;4.78;;;4.25;;
54787;SDS011;59598;48.112;16.280;2023-08-24T06:52:55;5.10;;;4.43;;
54787;SDS011;59598;48.112;16.280;2023-08-24T06:55:26;5.78;;;4.30;;
54787;SDS011;59598;48.112;16.280;2023-08-24T06:57:58;4.78;;;4.30;;
54787;SDS011;59598;48.112;16.280;2023-08-24T07:00:35;11.93;;;8.60;;
54787;SDS011;59598;48.112;16.280;2023-08-24T07:03:10;6.65;;;5.75;;
54787;SDS011;59598;48.112;16.280;2023-08-24T07:05:42;6.28;;;4.70;;
54787;SDS011;59598;48.112;16.280;2023-08-24T07:08:14;6.57;;;5.28;;
54787;SDS011;59598;48.112;16.280;2023-08-24T07:10:46;6.97;;;4.35;;
54787;SDS011;59598;48.112;16.280;2023-08-24T07:13:20;4.60;;;4.07;;
54787;SDS011;59598;48.112;16.280;2023-08-24T07:15:52;5.97;;;4.60;;
54787;SDS011;59598;48.112;16.280;2023-08-24T07:18:26;5.25;;;4.68;;
54787;SDS011;59598;48.112;16.280;2023-08-24T07:20:57;6.10;;;5.38;;
54787;SDS011;59598;48.112;16.280;2023-08-24T07:23:29;7.68;;;5.28;;
54787;SDS011;59598;48.112;16.280;2023-08-24T07:26:00;5.55;;;4.55;;
54787;SDS011;59598;48.112;16.280;2023-08-24T07:28:32;7.47;;;5.25;;
54787;SDS011;59598;48.112;16.280;2023-08-24T07:31:09;5.07;;;4.57;;
54787;SDS011;59598;48.112;16.280;2023-08-24T07:33:45;8.02;;;5.63;;
54787;SDS011;59598;48.112;16.280;2023-08-24T07:36:17;6.10;;;4.82;;
54787;SDS011;59598;48.112;16.280;2023-08-24T07:38:51;7.88;;;4.47;;
54787;SDS011;59598;48.112;16.280;2023-08-24T07:41:22;6.70;;;5.68;;
54787;SDS011;59598;48.112;16.280;2023-08-24T07:44:00;5.78;;;4.95;;
54787;SDS011;59598;48.112;16.280;2023-08-24T07:46:33;4.88;;;4.30;;
54787;SDS011;59598;48.112;16.280;2023-08-24T07:49:07;8.70;;;4.70;;
54787;SDS011;59598;48.112;16.280;2023-08-24T07:51:39;13.98;;;9.07;;
54787;SDS011;59598;48.112;16.280;2023-08-24T07:54:10;8.93;;;5.22;;
54787;SDS011;59598;48.112;16.280;2023-08-24T07:56:42;5.32;;;4.40;;
54787;SDS011;59598;48.112;16.280;2023-08-24T07:59:17;5.85;;;4.65;;
54787;SDS011;59598;48.112;16.280;2023-08-24T08:01:50;5.40;;;4.45;;
54787;SDS011;59598;48.112;16.280;2023-08-24T08:04:24;7.47;;;5.28;;
54787;SDS011;59598;48.112;16.280;2023-08-24T08:06:56;12.15;;;8.20;;
54787;SDS011;59598;48.112;16.280;2023-08-24T08:09:28;7.90;;;5.22;;
54787;SDS011;59598;48.112;16.280;2023-08-24T08:12:03;7.63;;;5.07;;
54787;SDS011;59598;48.112;16.280;2023-08-24T08:14:39;6.35;;;4.95;;
54787;SDS011;59598;48.112;16.280;2023-08-24T08:17:15;6.30;;;4.90;;
54787;SDS011;59598;48.112;16.280;2023-08-24T08:19:46;7.05;;;4.90;;
54787;SDS011;59598;48.112;16.280;2023-08-24T08:22:18;5.30;;;4.75;;
54787;SDS011;59598;48.112;16.280;2023-08-24T08:24:49;6.03;;;4.57;;
54787;SDS011;59598;48.112;16.280;2023-08-24T08:27:21;6.65;;;4.88;;
54787;SDS011;59598;48.112;16.280;2023-08-24T08:29:53;6.07;;;5.10;;
54787;SDS011;59598;48.112;16.280;2023-08-24T08:32:25;5.47;;;4.80;;
54787;SDS011;59598;48.112;16.280;2023-08-24T08:34:57;5.55;;;4.50;;
54787;SDS011;59598;48.112;16.280;2023-08-24T08:37:31;5.97;;;4.77;;
54787;SDS011;59598;48.112;16.280;2023-08-24T08:40:08;5.38;;;4.57;;
54787;SDS011;59598;48.112;16.280;2023-08-24T08:42:41;7.35;;;5.10;;
54787;SDS011;59598;48.112;16.280;2023-08-24T08:45:19;6.78;;;5.00;;
54787;SDS011;59598;48.112;16.280;2023-08-24T08:48:01;4.70;;;4.25;;
54787;SDS011;59598;48.112;16.280;2023-08-24T08:50:37;5.53;;;4.43;;
54787;SDS011;59598;48.112;16.280;2023-08-24T08:53:08;7.82;;;5.00;;
54787;SDS011;59598;48.112;16.280;2023-08-24T08:58:15;5.45;;;4.32;;
54787;SDS011;59598;48.112;16.280;2023-08-24T09:00:52;6.82;;;4.85;;
54787;SDS011;59598;48.112;16.280;2023-08-24T09:03:24;4.80;;;4.30;;
54787;SDS011;59598;48.112;16.280;2023-08-24T09:05:59;7.30;;;5.03;;
54787;SDS011;59598;48.112;16.280;2023-08-24T09:08:33;6.22;;;4.95;;
54787;SDS011;59598;48.112;16.280;2023-08-24T09:11:06;5.80;;;4.90;;
54787;SDS011;59598;48.112;16.280;2023-08-24T09:13:45;10.65;;;6.18;;
54787;SDS011;59598;48.112;16.280;2023-08-24T09:16:28;8.35;;;5.35;;
54787;SDS011;59598;48.112;16.280;2023-08-24T09:19:04;4.85;;;4.15;;
54787;SDS011;59598;48.112;16.280;2023-08-24T09:21:39;4.93;;;4.25;;
54787;SDS011;59598;48.112;16.280;2023-08-24T09:24:16;4.03;;;3.42;;
54787;SDS011;59598;48.112;16.280;2023-08-24T09:26:48;5.30;;;4.43;;
54787;SDS011;59598;48.112;16.280;2023-08-24T09:29:20;7.22;;;4.63;;
54787;SDS011;59598;48.112;16.280;2023-08-24T09:31:55;5.80;;;4.55;;
54787;SDS011;59598;48.112;16.280;2023-08-24T09:34:29;6.95;;;4.03;;
54787;SDS011;59598;48.112;16.280;2023-08-24T09:37:01;11.32;;;5.28;;
54787;SDS011;59598;48.112;16.280;2023-08-24T09:39:36;7.13;;;4.72;;
54787;SDS011;59598;48.112;16.280;2023-08-24T09:42:07;5.82;;;4.32;;
54787;SDS011;59598;48.112;16.280;2023-08-24T09:44:46;8.77;;;4.47;;
54787;SDS011;59598;48.112;16.280;2023-08-24T09:47:18;5.00;;;4.50;;
54787;SDS011;59598;48.112;16.280;2023-08-24T09:49:49;7.43;;;4.60;;
54787;SDS011;59598;48.112;16.280;2023-08-24T09:52:23;5.25;;;4.30;;
54787;SDS011;59598;48.112;16.280;2023-08-24T09:55:04;5.80;;;4.65;;
54787;SDS011;59598;48.112;16.280;2023-08-24T09:57:39;5.72;;;4.78;;
54787;SDS011;59598;48.112;16.280;2023-08-24T10:00:11;8.65;;;4.60;;
54787;SDS011;59598;48.112;16.280;2023-08-24T10:02:49;4.57;;;3.92;;
54787;SDS011;59598;48.112;16.280;2023-08-24T10:05:26;6.13;;;4.90;;
54787;SDS011;59598;48.112;16.280;2023-08-24T10:07:59;6.40;;;4.32;;
54787;SDS011;59598;48.112;16.280;2023-08-24T10:10:33;5.78;;;4.70;;
54787;SDS011;59598;48.112;16.280;2023-08-24T10:13:08;5.65;;;3.97;;
54787;SDS011;59598;48.112;16.280;2023-08-24T10:15:49;4.82;;;4.38;;
54787;SDS011;59598;48.112;16.280;2023-08-24T10:18:21;6.03;;;4.05;;
54787;SDS011;59598;48.112;16.280;2023-08-24T10:20:54;6.73;;;4.03;;
54787;SDS011;59598;48.112;16.280;2023-08-24T10:23:29;5.35;;;4.20;;
54787;SDS011;59598;48.112;16.280;2023-08-24T10:26:06;6.10;;;4.40;;
54787;SDS011;59598;48.112;16.280;2023-08-24T10:28:38;5.85;;;4.30;;
54787;SDS011;59598;48.112;16.280;2023-08-24T10:31:12;5.35;;;4.18;;
54787;SDS011;59598;48.112;16.280;2023-08-24T10:33:47;9.45;;;5.15;;
54787;SDS011;59598;48.112;16.280;2023-08-24T10:36:20;5.78;;;4.40;;
54787;SDS011;59598;48.112;16.280;2023-08-24T10:38:57;6.20;;;3.95;;
54787;SDS011;59598;48.112;16.280;2023-08-24T10:41:50;6.55;;;4.10;;
54787;SDS011;59598;48.112;16.280;2023-08-24T10:44:35;6.47;;;4.28;;
54787;SDS011;59598;48.112;16.280;2023-08-24T10:52:32;4.40;;;4.00;;
54787;SDS011;59598;48.112;16.280;2023-08-24T10:55:23;7.70;;;4.80;;
54787;SDS011;59598;48.112;16.280;2023-08-24T10:58:06;4.90;;;4.25;;
54787;SDS011;59598;48.112;16.280;2023-08-24T11:00:48;4.97;;;4.50;;
54787;SDS011;59598;48.112;16.280;2023-08-24T11:03:34;5.78;;;4.18;;
54787;SDS011;59598;48.112;16.280;2023-08-24T11:06:25;7.18;;;4.03;;
54787;SDS011;59598;48.112;16.280;2023-08-24T11:09:05;5.43;;;3.80;;
54787;SDS011;59598;48.112;16.280;2023-08-24T11:12:03;4.80;;;4.32;;
54787;SDS011;59598;48.112;16.280;2023-08-24T11:14:51;5.05;;;4.38;;
54787;SDS011;59598;48.112;16.280;2023-08-24T11:17:29;5.47;;;4.25;;
54787;SDS011;59598;48.112;16.280;2023-08-24T11:20:07;4.32;;;3.90;;
54787;SDS011;59598;48.112;16.280;2023-08-24T11:22:41;6.07;;;4.25;;
54787;SDS011;59598;48.112;16.280;2023-08-24T11:25:15;7.18;;;4.55;;
54787;SDS011;59598;48.112;16.280;2023-08-24T11:27:46;6.10;;;4.30;;
54787;SDS011;59598;48.112;16.280;2023-08-24T11:30:22;7.43;;;5.07;;
54787;SDS011;59598;48.112;16.280;2023-08-24T11:32:56;5.80;;;4.05;;
54787;SDS011;59598;48.112;16.280;2023-08-24T11:35:35;5.43;;;4.93;;
54787;SDS011;59598;48.112;16.280;2023-08-24T11:38:08;4.55;;;4.13;;
54787;SDS011;59598;48.112;16.280;2023-08-24T11:40:45;4.72;;;4.10;;
54787;SDS011;59598;48.112;16.280;2023-08-24T11:43:25;6.38;;;4.45;;
54787;SDS011;59598;48.112;16.280;2023-08-24T11:45:58;4.40;;;4.00;;
54787;SDS011;59598;48.112;16.280;2023-08-24T11:48:29;4.78;;;4.28;;
54787;SDS011;59598;48.112;16.280;2023-08-24T11:51:11;6.03;;;4.40;;
54787;SDS011;59598;48.112;16.280;2023-08-24T11:53:45;5.05;;;4.63;;
54787;SDS011;59598;48.112;16.280;2023-08-24T11:56:17;4.88;;;4.35;;
54787;SDS011;59598;48.112;16.280;2023-08-24T11:58:49;5.20;;;4.70;;
54787;SDS011;59598;48.112;16.280;2023-08-24T12:01:23;6.55;;;4.57;;
54787;SDS011;59598;48.112;16.280;2023-08-24T12:03:57;5.30;;;4.53;;
54787;SDS011;59598;48.112;16.280;2023-08-24T12:06:31;5.45;;;4.22;;
54787;SDS011;59598;48.112;16.280;2023-08-24T12:09:09;6.20;;;4.43;;
54787;SDS011;59598;48.112;16.280;2023-08-24T12:11:46;6.18;;;3.83;;
54787;SDS011;59598;48.112;16.280;2023-08-24T12:14:17;5.03;;;4.05;;
54787;SDS011;59598;48.112;16.280;2023-08-24T12:16:53;7.20;;;4.47;;
54787;SDS011;59598;48.112;16.280;2023-08-24T12:19:31;6.40;;;4.70;;
54787;SDS011;59598;48.112;16.280;2023-08-24T12:22:05;6.03;;;4.13;;
54787;SDS011;59598;48.112;16.280;2023-08-24T12:24:43;4.45;;;4.05;;
54787;SDS011;59598;48.112;16.280;2023-08-24T12:29:53;5.60;;;4.10;;
54787;SDS011;59598;48.112;16.280;2023-08-24T12:32:25;5.55;;;4.50;;
54787;SDS011;59598;48.112;16.280;2023-08-24T12:35:13;10.10;;;4.63;;
54787;SDS011;59598;48.112;16.280;2023-08-24T12:37:48;4.78;;;4.38;;
54787;SDS011;59598;48.112;16.280;2023-08-24T12:40:20;5.20;;;4.55;;
54787;SDS011;59598;48.112;16.280;2023-08-24T12:42:53;4.90;;;4.20;;
54787;SDS011;59598;48.112;16.280;2023-08-24T12:45:31;4.85;;;3.75;;
54787;SDS011;59598;48.112;16.280;2023-08-24T12:48:05;4.60;;;4.20;;
54787;SDS011;59598;48.112;16.280;2023-08-24T12:50:39;5.50;;;4.07;;
54787;SDS011;59598;48.112;16.280;2023-08-24T12:53:13;6.22;;;4.82;;
54787;SDS011;59598;48.112;16.280;2023-08-24T12:55:47;4.50;;;3.90;;
54787;SDS011;59598;48.112;16.280;2023-08-24T12:58:18;4.47;;;4.07;;
54787;SDS011;59598;48.112;16.280;2023-08-24T13:00:50;4.30;;;3.90;;
54787;SDS011;59598;48.112;16.280;2023-08-24T13:03:22;4.40;;;4.00;;
54787;SDS011;59598;48.112;16.280;2023-08-24T13:05:54;4.40;;;3.72;;
54787;SDS011;59598;48.112;16.280;2023-08-24T13:08:31;4.68;;;4.00;;
54787;SDS011;59598;48.112;16.280;2023-08-24T13:11:05;4.47;;;4.07;;
54787;SDS011;59598;48.112;16.280;2023-08-24T13:13:43;6.15;;;3.50;;
54787;SDS011;59598;48.112;16.280;2023-08-24T13:16:20;4.18;;;3.78;;
54787;SDS011;59598;48.112;16.280;2023-08-24T13:18:54;4.80;;;4.35;;
54787;SDS011;59598;48.112;16.280;2023-08-24T13:21:25;4.45;;;3.90;;
54787;SDS011;59598;48.112;16.280;2023-08-24T13:24:02;5.20;;;4.18;;
54787;SDS011;59598;48.112;16.280;2023-08-24T13:26:34;5.35;;;3.95;;
54787;SDS011;59598;48.112;16.280;2023-08-24T13:29:06;5.68;;;3.65;;
54787;SDS011;59598;48.112;16.280;2023-08-24T13:31:37;4.72;;;4.22;;
54787;SDS011;59598;48.112;16.280;2023-08-24T13:34:13;5.50;;;4.55;;
54787;SDS011;59598;48.112;16.280;2023-08-24T13:36:50;6.85;;;3.97;;
54787;SDS011;59598;48.112;16.280;2023-08-24T13:39:21;4.45;;;4.05;;
54787;SDS011;59598;48.112;16.280;2023-08-24T13:41:56;5.85;;;4.18;;
54787;SDS011;59598;48.112;16.280;2023-08-24T13:44:28;4.65;;;4.25;;
54787;SDS011;59598;48.112;16.280;2023-08-24T13:46:59;4.40;;;4.00;;
54787;SDS011;59598;48.112;16.280;2023-08-24T13:49:38;4.28;;;3.88;;
54787;SDS011;59598;48.112;16.280;2023-08-24T13:52:09;5.60;;;4.00;;
54787;SDS011;59598;48.112;16.280;2023-08-24T13:54:41;3.58;;;3.25;;
54787;SDS011;59598;48.112;16.280;2023-08-24T13:57:14;5.28;;;3.90;;
54787;SDS011;59598;48.112;16.280;2023-08-24T13:59:46;4.30;;;3.63;;
54787;SDS011;59598;48.112;16.280;2023-08-24T14:02:17;5.70;;;3.83;;
54787;SDS011;59598;48.112;16.280;2023-08-24T14:07:22;5.30;;;3.85;;
54787;SDS011;59598;48.112;16.280;2023-08-24T14:09:59;5.10;;;3.65;;
54787;SDS011;59598;48.112;16.280;2023-08-24T14:12:30;5.88;;;3.72;;
54787;SDS011;59598;48.112;16.280;2023-08-24T14:15:02;3.97;;;3.58;;
54787;SDS011;59598;48.112;16.280;2023-08-24T14:17:34;5.28;;;3.88;;
54787;SDS011;59598;48.112;16.280;2023-08-24T14:20:08;4.40;;;3.90;;
54787;SDS011;59598;48.112;16.280;2023-08-24T14:22:45;3.88;;;3.47;;
54787;SDS011;59598;48.112;16.280;2023-08-24T14:25:19;3.92;;;3.60;;
54787;SDS011;59598;48.112;16.280;2023-08-24T14:27:51;5.28;;;3.80;;
54787;SDS011;59598;48.112;16.280;2023-08-24T14:30:22;4.65;;;4.25;;
54787;SDS011;59598;48.112;16.280;2023-08-24T14:32:54;5.28;;;3.95;;
54787;SDS011;59598;48.112;16.280;2023-08-24T14:35:28;4.72;;;3.92;;
54787;SDS011;59598;48.112;16.280;2023-08-24T14:38:03;4.30;;;3.50;;
54787;SDS011;59598;48.112;16.280;2023-08-24T14:40:34;5.03;;;3.85;;
54787;SDS011;59598;48.112;16.280;2023-08-24T14:43:11;5.03;;;3.78;;
54787;SDS011;59598;48.112;16.280;2023-08-24T14:45:44;4.00;;;3.35;;
54787;SDS011;59598;48.112;16.280;2023-08-24T14:48:16;4.38;;;3.97;;
54787;SDS011;59598;48.112;16.280;2023-08-24T14:50:50;6.43;;;3.80;;
54787;SDS011;59598;48.112;16.280;2023-08-24T14:53:24;5.43;;;3.90;;
54787;SDS011;59598;48.112;16.280;2023-08-24T14:55:57;6.07;;;4.07;;
54787;SDS011;59598;48.112;16.280;2023-08-24T14:58:29;6.55;;;4.28;;
54787;SDS011;59598;48.112;16.280;2023-08-24T15:01:03;5.20;;;4.35;;
54787;SDS011;59598;48.112;16.280;2023-08-24T15:03:39;4.15;;;3.75;;
54787;SDS011;59598;48.112;16.280;2023-08-24T15:06:11;8.18;;;4.47;;
54787;SDS011;59598;48.112;16.280;2023-08-24T15:08:45;4.20;;;3.80;;
54787;SDS011;59598;48.112;16.280;2023-08-24T15:11:18;4.55;;;3.58;;
54787;SDS011;59598;48.112;16.280;2023-08-24T15:13:53;6.30;;;4.18;;
54787;SDS011;59598;48.112;16.280;2023-08-24T15:16:29;4.72;;;4.13;;
54787;SDS011;59598;48.112;16.280;2023-08-24T15:19:03;6.65;;;3.72;;
54787;SDS011;59598;48.112;16.280;2023-08-24T15:21:37;4.40;;;3.80;;
54787;SDS011;59598;48.112;16.280;2023-08-24T15:24:11;7.00;;;4.18;;
54787;SDS011;59598;48.112;16.280;2023-08-24T15:26:47;4.57;;;4.10;;
54787;SDS011;59598;48.112;16.280;2023-08-24T15:29:20;7.60;;;4.10;;
54787;SDS011;59598;48.112;16.280;2023-08-24T15:31:54;4.35;;;3.53;;
54787;SDS011;59598;48.112;16.280;2023-08-24T15:34:26;4.68;;;3.63;;
54787;SDS011;59598;48.112;16.280;2023-08-24T15:36:59;4.70;;;4.03;;
54787;SDS011;59598;48.112;16.280;2023-08-24T15:39:35;4.60;;;4.18;;
54787;SDS011;59598;48.112;16.280;2023-08-24T15:42:08;6.07;;;4.63;;
54787;SDS011;59598;48.112;16.280;2023-08-24T15:44:40;5.35;;;3.88;;
54787;SDS011;59598;48.112;16.280;2023-08-24T15:47:12;8.48;;;4.47;;
54787;SDS011;59598;48.112;16.280;2023-08-24T15:49:43;6.07;;;3.95;;
54787;SDS011;59598;48.112;16.280;2023-08-24T15:52:15;6.45;;;3.55;;
54787;SDS011;59598;48.112;16.280;2023-08-24T15:54:50;4.35;;;3.85;;
54787;SDS011;59598;48.112;16.280;2023-08-24T15:57:24;5.40;;;4.15;;
54787;SDS011;59598;48.112;16.280;2023-08-24T15:59:59;4.50;;;4.10;;
54787;SDS011;59598;48.112;16.280;2023-08-24T16:02:34;4.47;;;4.07;;
54787;SDS011;59598;48.112;16.280;2023-08-24T16:05:06;3.85;;;3.55;;
54787;SDS011;59598;48.112;16.280;2023-08-24T16:07:47;10.25;;;4.28;;
54787;SDS011;59598;48.112;16.280;2023-08-24T16:10:18;5.72;;;3.85;;
54787;SDS011;59598;48.112;16.280;2023-08-24T16:12:50;6.93;;;3.72;;